sensor_id;sensor_type;location;lat;lon;timestamp;temperature;humidity
37240;DHT22;23130;48.760;9.178;2023-04-01T00:01:20;7.40;99.90
37240;DHT22;23130;48.760;9.178;2023-04-01T00:03:46;7.40;99.90
37240;DHT22;23130;48.760;9.178;2023-04-01T00:06:14;7.50;99.90
37240;DHT22;23130;48.760;9.178;2023-04-01T00:08:40;7.50;99.90
37240;DHT22;23130;48.760;9.178;2023-04-01T00:11:05;7.60;99.90
37240;DHT22;23130;48.760;9.178;2023-04-01T00:13:31;7.60;99.90
37240;DHT22;23130;48.760;9.178;2023-04-01T00:15:57;7.70;99.90
37240;DHT22;23130;48.760;9.178;2023-04-01T00:18:24;7.70;99.90
37240;DHT22;23130;48.760;9.178;2023-04-01T00:20:51;7.70;99.90
37240;DHT22;23130;48.760;9.178;2023-04-01T00:23:18;7.70;99.90
37240;DHT22;23130;48.760;9.178;2023-04-01T00:25:45;7.80;99.90
37240;DHT22;23130;48.760;9.178;2023-04-01T00:28:14;7.80;99.90
37240;DHT22;23130;48.760;9.178;2023-04-01T00:30:40;7.80;99.90
37240;DHT22;23130;48.760;9.178;2023-04-01T00:33:06;7.70;99.90
37240;DHT22;23130;48.760;9.178;2023-04-01T00:35:31;7.70;99.90
37240;DHT22;23130;48.760;9.178;2023-04-01T00:37:58;7.50;99.90
37240;DHT22;23130;48.760;9.178;2023-04-01T00:40:36;7.60;99.90
37240;DHT22;23130;48.760;9.178;2023-04-01T00:43:02;7.50;99.90
37240;DHT22;23130;48.760;9.178;2023-04-01T00:45:34;7.50;99.90
37240;DHT22;23130;48.760;9.178;2023-04-01T00:48:24;7.60;99.90
37240;DHT22;23130;48.760;9.178;2023-04-01T00:51:10;7.60;99.90
37240;DHT22;23130;48.760;9.178;2023-04-01T00:53:39;7.70;99.90
37240;DHT22;23130;48.760;9.178;2023-04-01T00:56:18;7.80;99.90
37240;DHT22;23130;48.760;9.178;2023-04-01T00:58:49;7.80;99.90
37240;DHT22;23130;48.760;9.178;2023-04-01T01:01:16;7.80;99.90
37240;DHT22;23130;48.760;9.178;2023-04-01T01:03:42;7.80;99.90
37240;DHT22;23130;48.760;9.178;2023-04-01T01:09:12;7.90;99.90
37240;DHT22;23130;48.760;9.178;2023-04-01T01:11:50;7.90;99.90
37240;DHT22;23130;48.760;9.178;2023-04-01T01:14:32;7.80;99.90
37240;DHT22;23130;48.760;9.178;2023-04-01T01:30:47;7.70;99.90
37240;DHT22;23130;48.760;9.178;2023-04-01T01:33:45;7.80;99.90
37240;DHT22;23130;48.760;9.178;2023-04-01T01:36:13;7.80;99.90
37240;DHT22;23130;48.760;9.178;2023-04-01T01:38:41;7.80;99.90
37240;DHT22;23130;48.760;9.178;2023-04-01T01:41:07;7.80;99.90
37240;DHT22;23130;48.760;9.178;2023-04-01T01:43:43;7.80;99.90
37240;DHT22;23130;48.760;9.178;2023-04-01T01:46:14;7.80;99.90
37240;DHT22;23130;48.760;9.178;2023-04-01T01:48:42;7.80;99.90
37240;DHT22;23130;48.760;9.178;2023-04-01T01:51:09;7.80;99.90
37240;DHT22;23130;48.760;9.178;2023-04-01T01:53:35;7.80;99.90
37240;DHT22;23130;48.760;9.178;2023-04-01T01:56:01;7.80;99.90
37240;DHT22;23130;48.760;9.178;2023-04-01T01:58:33;7.70;99.90
37240;DHT22;23130;48.760;9.178;2023-04-01T02:01:03;7.70;99.90
37240;DHT22;23130;48.760;9.178;2023-04-01T02:03:33;7.60;99.90
37240;DHT22;23130;48.760;9.178;2023-04-01T02:06:01;7.60;99.90
37240;DHT22;23130;48.760;9.178;2023-04-01T02:08:31;7.50;99.90
37240;DHT22;23130;48.760;9.178;2023-04-01T02:11:07;7.60;99.90
37240;DHT22;23130;48.760;9.178;2023-04-01T02:13:35;7.60;99.90
37240;DHT22;23130;48.760;9.178;2023-04-01T02:16:13;7.50;99.90
37240;DHT22;23130;48.760;9.178;2023-04-01T02:18:39;7.50;99.90
37240;DHT22;23130;48.760;9.178;2023-04-01T02:21:07;7.50;99.90
37240;DHT22;23130;48.760;9.178;2023-04-01T02:23:35;7.40;99.90
37240;DHT22;23130;48.760;9.178;2023-04-01T02:26:05;7.50;99.90
37240;DHT22;23130;48.760;9.178;2023-04-01T02:28:31;7.50;99.90
37240;DHT22;23130;48.760;9.178;2023-04-01T02:30:59;7.50;99.90
37240;DHT22;23130;48.760;9.178;2023-04-01T02:33:28;7.50;99.90
37240;DHT22;23130;48.760;9.178;2023-04-01T02:35:54;7.40;99.90
37240;DHT22;23130;48.760;9.178;2023-04-01T02:38:20;7.50;99.90
37240;DHT22;23130;48.760;9.178;2023-04-01T02:40:51;7.50;99.90
37240;DHT22;23130;48.760;9.178;2023-04-01T02:43:17;7.50;99.90
37240;DHT22;23130;48.760;9.178;2023-04-01T02:45:44;7.40;99.90
37240;DHT22;23130;48.760;9.178;2023-04-01T02:48:09;7.40;99.90
37240;DHT22;23130;48.760;9.178;2023-04-01T02:50:35;7.30;99.90
37240;DHT22;23130;48.760;9.178;2023-04-01T02:53:01;7.20;99.90
37240;DHT22;23130;48.760;9.178;2023-04-01T02:55:29;7.20;99.90
37240;DHT22;23130;48.760;9.178;2023-04-01T02:57:55;7.20;99.90
37240;DHT22;23130;48.760;9.178;2023-04-01T03:00:21;7.20;99.90
37240;DHT22;23130;48.760;9.178;2023-04-01T03:02:58;7.10;99.90
37240;DHT22;23130;48.760;9.178;2023-04-01T03:09:05;7.20;99.90
37240;DHT22;23130;48.760;9.178;2023-04-01T03:11:36;7.20;99.90
37240;DHT22;23130;48.760;9.178;2023-04-01T03:17:35;7.20;99.90
37240;DHT22;23130;48.760;9.178;2023-04-01T03:20:17;7.20;99.90
37240;DHT22;23130;48.760;9.178;2023-04-01T03:23:25;7.20;99.90
37240;DHT22;23130;48.760;9.178;2023-04-01T03:26:10;7.10;99.90
37240;DHT22;23130;48.760;9.178;2023-04-01T03:28:54;7.10;99.90
37240;DHT22;23130;48.760;9.178;2023-04-01T03:31:22;7.00;99.90
37240;DHT22;23130;48.760;9.178;2023-04-01T03:33:47;7.00;99.90
37240;DHT22;23130;48.760;9.178;2023-04-01T03:36:13;7.00;99.90
37240;DHT22;23130;48.760;9.178;2023-04-01T03:38:43;7.10;99.90
37240;DHT22;23130;48.760;9.178;2023-04-01T03:41:13;7.10;99.90
37240;DHT22;23130;48.760;9.178;2023-04-01T03:43:39;7.20;99.90
37240;DHT22;23130;48.760;9.178;2023-04-01T03:46:05;7.20;99.90
37240;DHT22;23130;48.760;9.178;2023-04-01T03:48:31;7.30;99.90
37240;DHT22;23130;48.760;9.178;2023-04-01T03:50:56;7.30;99.90
37240;DHT22;23130;48.760;9.178;2023-04-01T03:53:22;7.30;99.90
37240;DHT22;23130;48.760;9.178;2023-04-01T03:55:48;7.40;99.90
37240;DHT22;23130;48.760;9.178;2023-04-01T03:58:13;7.30;99.90
37240;DHT22;23130;48.760;9.178;2023-04-01T04:00:39;7.30;99.90
37240;DHT22;23130;48.760;9.178;2023-04-01T04:03:06;7.20;99.90
37240;DHT22;23130;48.760;9.178;2023-04-01T04:05:32;7.10;99.90
37240;DHT22;23130;48.760;9.178;2023-04-01T04:07:57;7.10;99.90
37240;DHT22;23130;48.760;9.178;2023-04-01T04:10:23;7.00;99.90
37240;DHT22;23130;48.760;9.178;2023-04-01T04:12:50;6.90;99.90
37240;DHT22;23130;48.760;9.178;2023-04-01T04:15:16;6.90;99.90
37240;DHT22;23130;48.760;9.178;2023-04-01T04:17:43;6.80;99.90
37240;DHT22;23130;48.760;9.178;2023-04-01T04:20:09;6.70;99.90
37240;DHT22;23130;48.760;9.178;2023-04-01T04:22:35;6.70;99.90
37240;DHT22;23130;48.760;9.178;2023-04-01T04:25:01;6.70;99.90
37240;DHT22;23130;48.760;9.178;2023-04-01T04:27:26;6.80;99.90
37240;DHT22;23130;48.760;9.178;2023-04-01T04:29:52;6.70;99.90
37240;DHT22;23130;48.760;9.178;2023-04-01T04:32:17;6.60;99.90
37240;DHT22;23130;48.760;9.178;2023-04-01T04:34:43;6.60;99.90
37240;DHT22;23130;48.760;9.178;2023-04-01T04:37:08;6.60;99.90
37240;DHT22;23130;48.760;9.178;2023-04-01T04:39:34;6.50;99.90
37240;DHT22;23130;48.760;9.178;2023-04-01T04:42:00;6.40;99.90
37240;DHT22;23130;48.760;9.178;2023-04-01T04:44:25;6.50;99.90
37240;DHT22;23130;48.760;9.178;2023-04-01T04:46:51;6.50;99.90
37240;DHT22;23130;48.760;9.178;2023-04-01T04:49:16;6.40;99.90
37240;DHT22;23130;48.760;9.178;2023-04-01T04:51:42;6.40;99.90
37240;DHT22;23130;48.760;9.178;2023-04-01T04:54:08;6.50;99.90
37240;DHT22;23130;48.760;9.178;2023-04-01T04:56:34;6.60;99.90
37240;DHT22;23130;48.760;9.178;2023-04-01T04:59:01;6.70;99.90
37240;DHT22;23130;48.760;9.178;2023-04-01T05:01:27;6.70;99.90
37240;DHT22;23130;48.760;9.178;2023-04-01T05:03:53;6.70;99.90
37240;DHT22;23130;48.760;9.178;2023-04-01T05:06:19;6.70;99.90
37240;DHT22;23130;48.760;9.178;2023-04-01T05:08:45;6.80;99.90
37240;DHT22;23130;48.760;9.178;2023-04-01T05:11:14;6.80;99.90
37240;DHT22;23130;48.760;9.178;2023-04-01T05:13:41;6.90;99.90
37240;DHT22;23130;48.760;9.178;2023-04-01T05:16:12;6.90;99.90
37240;DHT22;23130;48.760;9.178;2023-04-01T05:18:38;7.00;99.90
37240;DHT22;23130;48.760;9.178;2023-04-01T05:21:06;7.00;99.90
37240;DHT22;23130;48.760;9.178;2023-04-01T05:23:32;7.10;99.90
37240;DHT22;23130;48.760;9.178;2023-04-01T05:25:58;7.20;99.90
37240;DHT22;23130;48.760;9.178;2023-04-01T05:28:24;7.20;99.90
37240;DHT22;23130;48.760;9.178;2023-04-01T05:30:49;7.30;99.90
37240;DHT22;23130;48.760;9.178;2023-04-01T05:33:16;7.30;99.90
37240;DHT22;23130;48.760;9.178;2023-04-01T05:35:41;7.40;99.90
37240;DHT22;23130;48.760;9.178;2023-04-01T05:38:07;7.50;99.90
37240;DHT22;23130;48.760;9.178;2023-04-01T05:40:33;7.60;99.90
37240;DHT22;23130;48.760;9.178;2023-04-01T05:42:59;7.70;99.90
37240;DHT22;23130;48.760;9.178;2023-04-01T05:45:26;7.90;99.90
37240;DHT22;23130;48.760;9.178;2023-04-01T05:47:51;8.00;99.90
37240;DHT22;23130;48.760;9.178;2023-04-01T05:50:17;8.10;99.90
37240;DHT22;23130;48.760;9.178;2023-04-01T05:52:43;8.10;99.90
37240;DHT22;23130;48.760;9.178;2023-04-01T05:55:09;8.30;99.90
37240;DHT22;23130;48.760;9.178;2023-04-01T05:57:35;8.40;99.90
37240;DHT22;23130;48.760;9.178;2023-04-01T06:00:01;8.60;99.90
37240;DHT22;23130;48.760;9.178;2023-04-01T06:02:26;8.80;99.90
37240;DHT22;23130;48.760;9.178;2023-04-01T06:05:11;9.10;99.90
37240;DHT22;23130;48.760;9.178;2023-04-01T06:07:37;9.40;99.90
37240;DHT22;23130;48.760;9.178;2023-04-01T06:10:17;9.40;99.90
37240;DHT22;23130;48.760;9.178;2023-04-01T06:20:42;10.20;99.90
37240;DHT22;23130;48.760;9.178;2023-04-01T06:25:54;11.40;99.90
37240;DHT22;23130;48.760;9.178;2023-04-01T06:42:13;10.40;99.90
37240;DHT22;23130;48.760;9.178;2023-04-01T06:45:02;10.20;99.90
37240;DHT22;23130;48.760;9.178;2023-04-01T06:50:30;9.80;99.90
37240;DHT22;23130;48.760;9.178;2023-04-01T06:55:41;9.70;99.90
37240;DHT22;23130;48.760;9.178;2023-04-01T06:58:18;9.70;99.90
37240;DHT22;23130;48.760;9.178;2023-04-01T07:00:46;9.80;99.90
37240;DHT22;23130;48.760;9.178;2023-04-01T07:03:32;9.80;99.90
37240;DHT22;23130;48.760;9.178;2023-04-01T07:06:04;9.90;99.90
37240;DHT22;23130;48.760;9.178;2023-04-01T07:08:33;10.00;99.90
37240;DHT22;23130;48.760;9.178;2023-04-01T07:11:03;10.00;99.90
37240;DHT22;23130;48.760;9.178;2023-04-01T07:13:52;10.00;99.90
37240;DHT22;23130;48.760;9.178;2023-04-01T07:16:34;10.10;99.90
37240;DHT22;23130;48.760;9.178;2023-04-01T07:22:32;10.10;99.90
37240;DHT22;23130;48.760;9.178;2023-04-01T07:25:03;10.10;99.90
37240;DHT22;23130;48.760;9.178;2023-04-01T07:27:30;10.00;99.90
37240;DHT22;23130;48.760;9.178;2023-04-01T07:29:57;9.90;99.90
37240;DHT22;23130;48.760;9.178;2023-04-01T07:32:38;9.80;99.90
37240;DHT22;23130;48.760;9.178;2023-04-01T07:35:22;9.80;99.90
37240;DHT22;23130;48.760;9.178;2023-04-01T07:43:56;9.80;99.90
37240;DHT22;23130;48.760;9.178;2023-04-01T07:49:14;9.80;99.90
37240;DHT22;23130;48.760;9.178;2023-04-01T07:55:00;9.90;99.90
37240;DHT22;23130;48.760;9.178;2023-04-01T07:57:52;10.00;99.90
37240;DHT22;23130;48.760;9.178;2023-04-01T08:00:27;10.20;99.90
37240;DHT22;23130;48.760;9.178;2023-04-01T08:05:39;10.50;99.90
37240;DHT22;23130;48.760;9.178;2023-04-01T08:11:01;10.60;99.90
37240;DHT22;23130;48.760;9.178;2023-04-01T08:13:44;10.60;99.90
37240;DHT22;23130;48.760;9.178;2023-04-01T08:16:26;10.60;99.90
37240;DHT22;23130;48.760;9.178;2023-04-01T08:21:52;10.60;99.90
37240;DHT22;23130;48.760;9.178;2023-04-01T08:24:35;10.70;99.90
37240;DHT22;23130;48.760;9.178;2023-04-01T08:27:09;10.70;99.90
37240;DHT22;23130;48.760;9.178;2023-04-01T08:29:51;10.70;99.90
37240;DHT22;23130;48.760;9.178;2023-04-01T08:32:23;10.80;99.90
37240;DHT22;23130;48.760;9.178;2023-04-01T08:35:02;10.90;99.90
37240;DHT22;23130;48.760;9.178;2023-04-01T08:37:36;10.90;99.90
37240;DHT22;23130;48.760;9.178;2023-04-01T08:40:47;11.00;99.90
37240;DHT22;23130;48.760;9.178;2023-04-01T08:43:51;10.90;99.90
37240;DHT22;23130;48.760;9.178;2023-04-01T08:51:45;10.10;99.90
37240;DHT22;23130;48.760;9.178;2023-04-01T08:57:13;9.50;99.90
37240;DHT22;23130;48.760;9.178;2023-04-01T09:00:15;9.30;99.90
37240;DHT22;23130;48.760;9.178;2023-04-01T09:03:04;9.20;99.90
37240;DHT22;23130;48.760;9.178;2023-04-01T09:08:39;9.20;99.90
37240;DHT22;23130;48.760;9.178;2023-04-01T09:37:29;11.00;99.90
37240;DHT22;23130;48.760;9.178;2023-04-01T09:59:32;10.70;99.90
37240;DHT22;23130;48.760;9.178;2023-04-01T10:13:23;10.80;99.90
37240;DHT22;23130;48.760;9.178;2023-04-01T10:19:16;10.90;99.90
37240;DHT22;23130;48.760;9.178;2023-04-01T10:27:33;11.90;99.90
37240;DHT22;23130;48.760;9.178;2023-04-01T10:50:29;12.70;99.90
37240;DHT22;23130;48.760;9.178;2023-04-01T10:53:18;12.60;99.90
37240;DHT22;23130;48.760;9.178;2023-04-01T10:56:07;12.50;99.90
37240;DHT22;23130;48.760;9.178;2023-04-01T11:09:39;12.00;99.90
37240;DHT22;23130;48.760;9.178;2023-04-01T11:18:20;11.90;99.90
37240;DHT22;23130;48.760;9.178;2023-04-01T11:29:19;12.90;99.90
37240;DHT22;23130;48.760;9.178;2023-04-01T11:32:07;13.20;99.90
37240;DHT22;23130;48.760;9.178;2023-04-01T11:37:38;13.50;99.90
37240;DHT22;23130;48.760;9.178;2023-04-01T11:40:21;13.60;99.90
37240;DHT22;23130;48.760;9.178;2023-04-01T11:42:57;13.70;99.90
37240;DHT22;23130;48.760;9.178;2023-04-01T12:02:29;13.00;99.90
37240;DHT22;23130;48.760;9.178;2023-04-01T12:05:20;12.50;99.90
37240;DHT22;23130;48.760;9.178;2023-04-01T12:08:04;12.50;99.90
37240;DHT22;23130;48.760;9.178;2023-04-01T12:10:53;12.40;99.90
37240;DHT22;23130;48.760;9.178;2023-04-01T12:13:39;12.30;99.90
37240;DHT22;23130;48.760;9.178;2023-04-01T12:18:57;12.50;99.90
37240;DHT22;23130;48.760;9.178;2023-04-01T12:21:37;12.50;99.90
37240;DHT22;23130;48.760;9.178;2023-04-01T12:24:29;12.50;99.90
37240;DHT22;23130;48.760;9.178;2023-04-01T12:27:49;12.20;99.90
37240;DHT22;23130;48.760;9.178;2023-04-01T12:47:00;13.20;99.90
37240;DHT22;23130;48.760;9.178;2023-04-01T12:53:07;13.10;99.90
37240;DHT22;23130;48.760;9.178;2023-04-01T12:55:42;13.10;99.90
37240;DHT22;23130;48.760;9.178;2023-04-01T13:06:58;13.50;99.90
37240;DHT22;23130;48.760;9.178;2023-04-01T13:09:57;13.40;99.90
37240;DHT22;23130;48.760;9.178;2023-04-01T13:15:28;13.20;99.90
37240;DHT22;23130;48.760;9.178;2023-04-01T13:29:05;12.50;99.90
37240;DHT22;23130;48.760;9.178;2023-04-01T13:31:55;12.60;99.90
37240;DHT22;23130;48.760;9.178;2023-04-01T13:34:34;12.70;99.90
37240;DHT22;23130;48.760;9.178;2023-04-01T13:37:21;12.70;99.90
37240;DHT22;23130;48.760;9.178;2023-04-01T13:42:59;12.90;99.90
37240;DHT22;23130;48.760;9.178;2023-04-01T14:15:52;12.50;99.90
37240;DHT22;23130;48.760;9.178;2023-04-01T14:32:00;12.20;99.90
37240;DHT22;23130;48.760;9.178;2023-04-01T14:46:15;11.90;99.90
37240;DHT22;23130;48.760;9.178;2023-04-01T14:48:58;11.90;99.90
37240;DHT22;23130;48.760;9.178;2023-04-01T14:54:17;11.70;99.90
37240;DHT22;23130;48.760;9.178;2023-04-01T14:59:54;11.70;99.90
37240;DHT22;23130;48.760;9.178;2023-04-01T15:14:15;11.90;99.90
37240;DHT22;23130;48.760;9.178;2023-04-01T15:25:27;11.60;99.90
37240;DHT22;23130;48.760;9.178;2023-04-01T15:33:49;11.70;99.90
37240;DHT22;23130;48.760;9.178;2023-04-01T15:39:19;11.70;99.90
37240;DHT22;23130;48.760;9.178;2023-04-01T15:44:48;11.70;99.90
37240;DHT22;23130;48.760;9.178;2023-04-01T15:50:16;11.60;99.90
37240;DHT22;23130;48.760;9.178;2023-04-01T16:12:11;11.00;99.90
37240;DHT22;23130;48.760;9.178;2023-04-01T16:14:45;11.10;99.90
37240;DHT22;23130;48.760;9.178;2023-04-01T16:17:31;11.00;99.90
37240;DHT22;23130;48.760;9.178;2023-04-01T16:23:35;11.00;99.90
37240;DHT22;23130;48.760;9.178;2023-04-01T16:28:57;10.80;99.90
37240;DHT22;23130;48.760;9.178;2023-04-01T16:31:51;10.70;99.90
37240;DHT22;23130;48.760;9.178;2023-04-01T16:34:30;10.60;99.90
37240;DHT22;23130;48.760;9.178;2023-04-01T16:37:17;10.60;99.90
37240;DHT22;23130;48.760;9.178;2023-04-01T16:45:26;10.50;99.90
37240;DHT22;23130;48.760;9.178;2023-04-01T16:47:58;10.50;99.90
37240;DHT22;23130;48.760;9.178;2023-04-01T16:53:14;10.60;99.90
37240;DHT22;23130;48.760;9.178;2023-04-01T16:55:51;10.50;99.90
37240;DHT22;23130;48.760;9.178;2023-04-01T16:58:24;10.50;99.90
37240;DHT22;23130;48.760;9.178;2023-04-01T17:00:58;10.50;99.90
37240;DHT22;23130;48.760;9.178;2023-04-01T17:03:45;10.50;99.90
37240;DHT22;23130;48.760;9.178;2023-04-01T17:06:27;10.60;99.90
37240;DHT22;23130;48.760;9.178;2023-04-01T17:11:40;10.50;99.90
37240;DHT22;23130;48.760;9.178;2023-04-01T17:21:56;10.40;99.90
37240;DHT22;23130;48.760;9.178;2023-04-01T17:30:12;10.20;99.90
37240;DHT22;23130;48.760;9.178;2023-04-01T17:35:50;10.10;99.90
37240;DHT22;23130;48.760;9.178;2023-04-01T17:44:13;9.90;99.90
37240;DHT22;23130;48.760;9.178;2023-04-01T17:52:24;9.90;99.90
37240;DHT22;23130;48.760;9.178;2023-04-01T17:57:43;9.90;99.90
37240;DHT22;23130;48.760;9.178;2023-04-01T18:00:29;9.80;99.90
37240;DHT22;23130;48.760;9.178;2023-04-01T18:09:19;9.60;99.90
37240;DHT22;23130;48.760;9.178;2023-04-01T18:23:23;9.10;99.90
37240;DHT22;23130;48.760;9.178;2023-04-01T18:26:01;9.10;99.90
37240;DHT22;23130;48.760;9.178;2023-04-01T18:28:52;9.00;99.90
37240;DHT22;23130;48.760;9.178;2023-04-01T18:31:24;8.90;99.90
37240;DHT22;23130;48.760;9.178;2023-04-01T18:33:57;8.90;99.90
37240;DHT22;23130;48.760;9.178;2023-04-01T18:36:37;8.90;99.90
37240;DHT22;23130;48.760;9.178;2023-04-01T18:39:39;8.80;99.90
37240;DHT22;23130;48.760;9.178;2023-04-01T18:44:54;8.60;99.90
37240;DHT22;23130;48.760;9.178;2023-04-01T18:47:47;8.60;99.90
37240;DHT22;23130;48.760;9.178;2023-04-01T18:52:57;8.30;99.90
37240;DHT22;23130;48.760;9.178;2023-04-01T18:55:37;8.10;99.90
37240;DHT22;23130;48.760;9.178;2023-04-01T18:58:25;8.10;99.90
37240;DHT22;23130;48.760;9.178;2023-04-01T19:01:13;7.90;99.90
37240;DHT22;23130;48.760;9.178;2023-04-01T19:06:30;7.80;99.90
37240;DHT22;23130;48.760;9.178;2023-04-01T19:09:14;7.80;99.90
37240;DHT22;23130;48.760;9.178;2023-04-01T19:17:00;7.70;99.90
37240;DHT22;23130;48.760;9.178;2023-04-01T19:27:50;7.30;99.90
37240;DHT22;23130;48.760;9.178;2023-04-01T19:30:25;7.20;99.90
37240;DHT22;23130;48.760;9.178;2023-04-01T19:35:46;7.10;99.90
37240;DHT22;23130;48.760;9.178;2023-04-01T19:38:29;7.00;99.90
37240;DHT22;23130;48.760;9.178;2023-04-01T19:41:31;7.00;99.90
37240;DHT22;23130;48.760;9.178;2023-04-01T19:46:37;7.10;99.90
37240;DHT22;23130;48.760;9.178;2023-04-01T19:52:33;7.20;99.90
37240;DHT22;23130;48.760;9.178;2023-04-01T20:03:30;7.30;99.90
37240;DHT22;23130;48.760;9.178;2023-04-01T20:06:11;7.30;99.90
37240;DHT22;23130;48.760;9.178;2023-04-01T20:08:53;7.40;99.90
37240;DHT22;23130;48.760;9.178;2023-04-01T20:11:46;7.50;99.90
37240;DHT22;23130;48.760;9.178;2023-04-01T20:15:18;7.60;99.90
37240;DHT22;23130;48.760;9.178;2023-04-01T20:17:31;7.70;99.90
37240;DHT22;23130;48.760;9.178;2023-04-01T20:27:47;7.80;99.90
37240;DHT22;23130;48.760;9.178;2023-04-01T20:53:43;8.10;99.90
37240;DHT22;23130;48.760;9.178;2023-04-01T20:56:40;8.10;99.90
37240;DHT22;23130;48.760;9.178;2023-04-01T20:59:13;8.10;99.90
37240;DHT22;23130;48.760;9.178;2023-04-01T21:07:39;8.10;99.90
37240;DHT22;23130;48.760;9.178;2023-04-01T21:16:23;8.10;99.90
37240;DHT22;23130;48.760;9.178;2023-04-01T21:21:51;8.00;99.90
37240;DHT22;23130;48.760;9.178;2023-04-01T21:24:36;8.00;99.90
37240;DHT22;23130;48.760;9.178;2023-04-01T21:27:20;8.00;99.90
37240;DHT22;23130;48.760;9.178;2023-04-01T21:35:00;8.00;99.90
37240;DHT22;23130;48.760;9.178;2023-04-01T21:37:33;8.00;99.90
37240;DHT22;23130;48.760;9.178;2023-04-01T21:45:46;8.00;99.90
37240;DHT22;23130;48.760;9.178;2023-04-01T21:51:09;8.00;99.90
37240;DHT22;23130;48.760;9.178;2023-04-01T21:53:53;7.90;99.90
37240;DHT22;23130;48.760;9.178;2023-04-01T21:59:33;7.90;99.90
37240;DHT22;23130;48.760;9.178;2023-04-01T22:02:25;7.90;99.90
37240;DHT22;23130;48.760;9.178;2023-04-01T22:07:39;7.80;99.90
37240;DHT22;23130;48.760;9.178;2023-04-01T22:13:16;7.80;99.90
37240;DHT22;23130;48.760;9.178;2023-04-01T22:15:48;7.60;99.90
37240;DHT22;23130;48.760;9.178;2023-04-01T22:18:33;7.60;99.90
37240;DHT22;23130;48.760;9.178;2023-04-01T22:23:52;7.50;99.90
37240;DHT22;23130;48.760;9.178;2023-04-01T22:26:38;7.50;99.90
37240;DHT22;23130;48.760;9.178;2023-04-01T22:29:38;7.50;99.90
37240;DHT22;23130;48.760;9.178;2023-04-01T22:32:22;7.60;99.90
37240;DHT22;23130;48.760;9.178;2023-04-01T22:40:34;7.60;99.90
37240;DHT22;23130;48.760;9.178;2023-04-01T22:45:44;7.70;99.90
37240;DHT22;23130;48.760;9.178;2023-04-01T22:48:40;7.80;99.90
37240;DHT22;23130;48.760;9.178;2023-04-01T22:56:33;7.90;99.90
37240;DHT22;23130;48.760;9.178;2023-04-01T22:59:17;7.90;99.90
37240;DHT22;23130;48.760;9.178;2023-04-01T23:01:51;7.90;99.90
37240;DHT22;23130;48.760;9.178;2023-04-01T23:04:21;7.90;99.90
37240;DHT22;23130;48.760;9.178;2023-04-01T23:06:55;7.80;99.90
37240;DHT22;23130;48.760;9.178;2023-04-01T23:12:04;7.80;99.90
37240;DHT22;23130;48.760;9.178;2023-04-01T23:24:59;7.70;99.90
37240;DHT22;23130;48.760;9.178;2023-04-01T23:27:37;7.70;99.90
37240;DHT22;23130;48.760;9.178;2023-04-01T23:35:52;7.70;99.90
37240;DHT22;23130;48.760;9.178;2023-04-01T23:38:20;7.70;99.90
37240;DHT22;23130;48.760;9.178;2023-04-01T23:40:49;7.70;99.90
37240;DHT22;23130;48.760;9.178;2023-04-01T23:43:34;7.70;99.90
37240;DHT22;23130;48.760;9.178;2023-04-01T23:46:03;7.70;99.90
37240;DHT22;23130;48.760;9.178;2023-04-01T23:50:58;7.70;99.90
37240;DHT22;23130;48.760;9.178;2023-04-01T23:53:25;7.70;99.90
37240;DHT22;23130;48.760;9.178;2023-04-01T23:55:54;7.70;99.90
37240;DHT22;23130;48.760;9.178;2023-04-01T23:58:41;7.60;99.90
